Time;durP1;ratioP1;P1;durP2;ratioP2;P2;SDS_P1;SDS_P2;PMS_P1;PMS_P2;Temp;Humidity;BMP_temperature;BMP_pressure;BME280_temperature;BME280_humidity;BME280_pressure;Samples;Min_cycle;Max_cycle;Signal;HPM_P1;HPM_P2
2022/03/29 00:00:04;;;;;;;14.60;9.45;;;13.20;38.40;;;13.52;34.99;97404.38;5029471;28;20049;-48
2022/03/29 00:02:40;;;;;;;11.82;8.82;;;13.20;38.30;;;13.55;35.18;97412.84;5031624;28;20480;-47
2022/03/29 00:05:08;;;;;;;14.50;8.10;;;13.30;38.40;;;13.56;35.15;97406.47;5029656;28;20057;-47
2022/03/29 00:07:36;;;;;;;14.40;8.88;;;13.30;38.30;;;13.55;35.22;97403.97;5031391;28;20060;-47
2022/03/29 00:10:06;;;;;;;17.52;9.23;;;13.20;38.60;;;13.54;35.31;97397.81;5029689;28;20374;-47
2022/03/29 00:12:35;;;;;;;12.98;8.20;;;13.20;38.70;;;13.52;35.49;97378.44;5028728;28;20344;-49
2022/03/29 00:15:06;;;;;;;11.68;7.80;;;13.20;38.70;;;13.51;35.21;97387.50;5030577;28;20215;-47
2022/03/29 00:17:34;;;;;;;14.35;8.68;;;13.10;38.50;;;13.51;35.35;97378.63;5029351;28;20133;-47
2022/03/29 00:20:02;;;;;;;13.45;8.07;;;13.20;38.50;;;13.52;35.06;97370.44;5028278;28;20252;-47
2022/03/29 00:22:30;;;;;;;17.10;9.63;;;13.20;38.40;;;13.51;35.06;97373.28;5030016;28;20049;-48
2022/03/29 00:24:58;;;;;;;13.05;7.85;;;13.20;38.40;;;13.52;35.21;97375.78;5029794;28;20055;-47
2022/03/29 00:27:26;;;;;;;16.67;9.20;;;13.20;38.40;;;13.52;35.14;97370.44;5028054;28;20049;-47
2022/03/29 00:29:54;;;;;;;14.10;8.15;;;13.20;38.10;;;13.53;35.26;97365.91;5026497;28;20049;-46
2022/03/29 00:32:22;;;;;;;15.07;9.80;;;13.20;38.00;;;13.56;34.89;97354.84;5029770;28;20243;-48
2022/03/29 00:34:50;;;;;;;15.80;9.48;;;13.30;38.00;;;13.59;35.11;97359.81;5028942;28;20052;-48
2022/03/29 00:37:18;;;;;;;12.68;8.80;;;13.30;37.90;;;13.61;34.75;97346.25;5029731;28;20052;-48
2022/03/29 00:39:45;;;;;;;11.45;8.15;;;13.40;37.80;;;13.63;34.85;97349.56;5028861;28;20052;-48
2022/03/29 00:42:13;;;;;;;11.65;7.85;;;13.40;37.70;;;13.65;34.82;97351.03;5028443;28;20053;-48
2022/03/29 00:44:42;;;;;;;14.48;8.25;;;13.40;37.50;;;13.67;34.69;97349.00;5027222;28;20267;-49
2022/03/29 00:47:10;;;;;;;15.38;8.25;;;13.50;37.50;;;13.70;34.60;97340.59;5028114;28;20049;-48
2022/03/29 00:49:37;;;;;;;13.77;8.23;;;13.40;37.20;;;13.73;34.31;97340.22;5029252;28;20063;-47
2022/03/29 00:52:06;;;;;;;15.13;8.13;;;13.50;37.10;;;13.75;34.41;97340.88;5028535;28;20334;-49
2022/03/29 00:54:39;;;;;;;11.60;7.82;;;13.60;37.00;;;13.77;34.43;97338.00;5026037;28;20283;-47
2022/03/29 00:57:07;;;;;;;14.30;9.13;;;13.60;36.80;;;13.80;34.39;97340.28;5026835;28;20057;-48
2022/03/29 00:59:34;;;;;;;12.88;8.73;;;13.60;36.80;;;13.82;34.33;97332.06;5028193;28;20083;-49
2022/03/29 01:02:02;;;;;;;13.30;8.48;;;13.60;36.90;;;13.86;34.42;97325.31;5028738;28;20057;-49
2022/03/29 01:04:31;;;;;;;12.88;8.63;;;13.70;37.00;;;13.86;34.16;97328.00;5028771;28;20363;-48
2022/03/29 01:06:59;;;;;;;13.32;8.23;;;13.60;36.80;;;13.86;34.30;97319.97;5028947;28;20061;-48
2022/03/29 01:09:30;;;;;;;13.30;8.23;;;13.70;36.90;;;13.82;34.22;97313.34;5028129;28;20377;-47
2022/03/29 01:11:58;;;;;;;12.02;7.68;;;13.60;36.90;;;13.82;34.22;97313.34;5028243;28;20057;-48
2022/03/29 01:14:27;;;;;;;13.07;7.97;;;13.60;36.90;;;13.86;34.36;97306.59;5028720;28;20212;-48
2022/03/29 01:19:43;;;;;;;11.10;7.97;;;13.60;36.90;;;13.85;34.43;97296.94;5027810;28;20064;-50
2022/03/29 01:22:12;;;;;;;14.43;8.82;;;13.60;37.00;;;13.86;34.33;97293.22;5028246;28;20067;-48
2022/03/29 01:24:43;;;;;;;12.10;7.45;;;13.60;36.90;;;13.86;34.14;97294.06;5025709;28;20060;-47
2022/03/29 01:27:13;;;;;;;14.20;8.45;;;13.70;36.80;;;13.90;34.08;97289.13;5029848;28;20065;-49
2022/03/29 01:29:43;;;;;;;11.43;8.40;;;13.70;36.70;;;13.91;34.12;97282.78;5027894;28;20283;-47
2022/03/29 01:32:11;;;;;;;15.45;9.23;;;13.70;36.50;;;13.93;34.02;97278.88;5028934;28;20050;-50
2022/03/29 01:34:43;;;;;;;12.93;7.93;;;13.80;36.30;;;13.96;33.95;97280.38;5028910;28;20045;-50
2022/03/29 01:37:11;;;;;;;11.07;7.85;;;13.80;36.20;;;13.98;33.80;97278.31;5028374;28;20055;-48
2022/03/29 01:39:39;;;;;;;12.27;7.90;;;13.80;36.20;;;13.98;33.86;97271.13;5028298;28;20049;-48
2022/03/29 01:42:08;;;;;;;12.70;8.25;;;13.80;36.20;;;14.00;33.71;97268.25;5027707;28;20042;-52
2022/03/29 01:44:36;;;;;;;13.45;7.93;;;13.80;36.10;;;14.00;33.74;97265.59;5028275;28;20059;-48
2022/03/29 01:47:04;;;;;;;15.95;8.20;;;13.80;36.10;;;14.01;33.67;97261.88;5026780;28;20049;-49
2022/03/29 01:49:33;;;;;;;13.70;7.90;;;13.80;36.10;;;14.01;33.96;97261.06;5025056;28;20061;-49
2022/03/29 01:52:01;;;;;;;13.85;7.93;;;13.80;36.10;;;13.98;33.78;97257.75;5026834;28;20067;-49
2022/03/29 01:54:31;;;;;;;14.55;8.80;;;13.80;36.20;;;13.98;33.72;97263.09;5027457;28;20062;-52
2022/03/29 01:56:59;;;;;;;17.27;8.07;;;13.70;36.20;;;13.98;33.86;97260.41;5025530;28;20063;-49
2022/03/29 02:00:30;;;;;;;15.73;9.13;;;13.70;36.30;;;13.95;33.82;97254.63;5027019;28;20056;-48
2022/03/29 02:02:16;;;;;;;13.88;8.20;;;13.70;36.30;;;13.92;33.94;97252.31;5026118;28;20051;-50
2022/03/29 02:04:44;;;;;;;14.40;8.80;;;13.60;36.50;;;13.85;34.07;97248.75;5027520;28;20494;-47
2022/03/29 02:07:12;;;;;;;11.32;7.60;;;13.50;37.00;;;13.82;34.30;97247.28;5027102;28;20049;-52
2022/03/29 02:09:40;;;;;;;13.15;7.63;;;13.50;37.10;;;13.79;34.12;97248.50;5027844;28;20055;-50
2022/03/29 02:12:12;;;;;;;13.77;8.95;;;13.50;37.20;;;13.77;34.20;97244.38;5027729;28;20055;-48
2022/03/29 02:14:40;;;;;;;13.23;8.05;;;13.50;37.20;;;13.74;34.34;97244.75;5027639;28;20045;-51
2022/03/29 02:17:08;;;;;;;14.18;9.05;;;13.40;37.20;;;13.73;34.35;97243.91;5026748;28;20045;-47
2022/03/29 02:19:36;;;;;;;12.85;8.18;;;13.40;37.10;;;13.70;34.25;97240.78;5026784;28;20041;-47
2022/03/29 02:22:04;;;;;;;15.50;8.38;;;13.40;37.20;;;13.66;34.52;97234.19;5027596;28;20057;-48
2022/03/29 02:24:32;;;;;;;13.77;8.98;;;13.40;37.30;;;13.66;34.42;97226.97;5026878;28;20063;-49
2022/03/29 02:27:00;;;;;;;15.48;9.98;;;13.40;37.20;;;13.67;34.40;97228.63;5026817;28;20053;-47
2022/03/29 02:29:27;;;;;;;14.10;9.05;;;13.40;37.20;;;13.66;34.44;97229.66;5026248;28;20046;-47
2022/03/29 02:31:55;;;;;;;15.18;8.95;;;13.40;37.20;;;13.67;34.21;97225.16;5026245;28;20053;-49
2022/03/29 02:34:23;;;;;;;14.43;8.63;;;13.40;37.10;;;13.66;34.32;97224.28;5026737;28;20045;-49
2022/03/29 02:36:51;;;;;;;14.80;8.02;;;13.40;37.20;;;13.65;34.54;97219.97;5026824;28;20053;-49
2022/03/29 02:39:19;;;;;;;13.57;7.93;;;13.40;37.20;;;13.66;34.33;97212.78;5027614;28;20061;-52
2022/03/29 02:41:47;;;;;;;12.15;8.07;;;13.40;37.20;;;13.64;34.57;97222.84;5027253;28;20045;-48
2022/03/29 02:44:14;;;;;;;13.20;8.85;;;13.40;37.30;;;13.63;34.14;97213.16;5024306;28;20063;-47
2022/03/29 02:46:44;;;;;;;14.63;8.43;;;13.30;37.30;;;13.61;34.60;97215.19;5027326;28;20061;-51
2022/03/29 02:49:11;;;;;;;13.23;8.48;;;13.30;37.30;;;13.57;34.39;97225.44;5025931;28;20227;-48
2022/03/29 02:51:39;;;;;;;14.77;9.00;;;13.30;37.60;;;13.39;34.97;97220.53;5026753;28;20067;-49
2022/03/29 02:54:08;;;;;;;14.38;8.38;;;13.00;39.00;;;13.16;35.44;97220.63;5026104;28;20075;-48
2022/03/29 02:56:36;;;;;;;14.43;9.95;;;12.60;39.40;;;13.07;35.64;97221.78;5025915;28;20216;-47
2022/03/29 02:59:04;;;;;;;12.70;8.73;;;12.50;39.50;;;13.03;35.81;97215.13;5025526;28;20060;-47
2022/03/29 03:01:32;;;;;;;15.80;10.05;;;12.50;39.80;;;12.97;35.88;97208.72;5025773;28;20048;-51
2022/03/29 03:04:01;;;;;;;11.20;7.95;;;12.40;40.20;;;12.88;36.13;97209.84;5025838;28;20080;-48
2022/03/29 03:06:28;;;;;;;12.48;8.90;;;12.30;40.50;;;12.68;36.35;97207.72;5026375;28;20052;-47
2022/03/29 03:08:56;;;;;;;15.15;9.30;;;12.00;41.30;;;12.56;36.57;97210.03;5024906;28;20632;-48
2022/03/29 03:11:24;;;;;;;13.40;9.45;;;12.00;41.30;;;12.47;36.79;97210.31;5026231;28;20295;-49
2022/03/29 03:13:52;;;;;;;14.73;9.53;;;11.90;41.60;;;12.33;36.98;97210.13;5026069;28;20053;-47
2022/03/29 03:16:20;;;;;;;15.75;9.38;;;11.60;42.20;;;12.21;37.26;97212.41;5025337;28;20037;-47
2022/03/29 03:18:48;;;;;;;15.32;9.35;;;11.50;42.70;;;12.12;37.42;97215.34;5025074;28;20050;-50
2022/03/29 03:21:15;;;;;;;13.17;8.57;;;11.40;42.90;;;12.08;38.02;97216.69;5025746;28;20064;-49
2022/03/29 03:23:43;;;;;;;13.97;9.10;;;11.40;43.20;;;12.04;38.18;97210.06;5025950;28;20052;-48
2022/03/29 03:26:11;;;;;;;13.53;8.47;;;11.40;43.60;;;11.98;38.19;97209.78;5026989;28;20057;-49
2022/03/29 03:28:39;;;;;;;14.63;9.57;;;11.30;43.80;;;11.91;38.41;97208.03;5026447;28;20057;-48
2022/03/29 03:31:07;;;;;;;13.93;9.03;;;11.20;44.00;;;11.86;38.28;97199.69;5025904;28;20254;-48
2022/03/29 03:33:35;;;;;;;25.75;16.70;;;11.20;44.10;;;11.82;38.33;97202.75;5026538;28;20053;-48
2022/03/29 03:36:04;;;;;;;17.93;12.23;;;11.20;44.10;;;11.80;38.55;97198.56;5026955;28;20057;-49
2022/03/29 03:38:32;;;;;;;21.13;15.67;;;11.20;44.30;;;11.79;38.64;97194.25;5026026;28;20045;-48
2022/03/29 03:41:00;;;;;;;15.17;10.87;;;11.20;44.10;;;11.76;38.80;97190.09;5024564;28;20057;-47
2022/03/29 03:43:28;;;;;;;17.42;12.05;;;11.20;44.10;;;11.77;38.43;97186.44;5025084;28;20371;-47
2022/03/29 03:45:56;;;;;;;14.47;10.47;;;11.20;44.00;;;11.69;39.00;97178.50;5025466;28;20057;-49
2022/03/29 03:48:24;;;;;;;12.33;9.37;;;11.10;44.30;;;11.70;39.06;97187.34;5026428;28;20053;-48
2022/03/29 03:50:52;;;;;;;14.10;9.63;;;11.10;44.50;;;11.64;39.14;97191.53;5024553;28;20224;-48
2022/03/29 03:53:19;;;;;;;12.53;9.50;;;11.00;44.90;;;11.58;39.32;97178.94;5025179;28;20049;-50
2022/03/29 03:55:47;;;;;;;17.60;9.00;;;11.00;45.00;;;11.58;39.48;97185.09;5026152;28;20341;-49
2022/03/29 03:58:16;;;;;;;18.83;14.50;;;11.00;44.80;;;11.58;39.53;97182.41;5024921;28;20375;-48
2022/03/29 04:00:44;;;;;;;19.97;13.67;;;11.00;44.90;;;11.56;39.55;97180.94;5025281;28;20037;-47
2022/03/29 04:03:12;;;;;;;18.83;12.63;;;11.00;45.00;;;11.55;39.38;97181.94;5023928;28;20053;-47
2022/03/29 04:05:40;;;;;;;16.20;10.33;;;11.00;45.20;;;11.53;39.36;97181.28;5024448;28;20057;-48
2022/03/29 04:08:08;;;;;;;13.73;8.83;;;10.90;45.20;;;11.52;39.91;97180.47;5025700;28;20056;-46
2022/03/29 04:10:36;;;;;;;17.47;11.40;;;10.90;45.30;;;11.52;39.60;97175.16;5026031;28;20045;-50
2022/03/29 04:13:04;;;;;;;18.27;10.20;;;10.90;45.20;;;11.48;39.75;97165.84;5025785;28;20055;-47
2022/03/29 04:15:32;;;;;;;15.47;10.00;;;10.90;45.60;;;11.43;40.13;97171.69;5023617;28;20312;-47
2022/03/29 04:18:01;;;;;;;17.73;11.60;;;10.80;45.80;;;11.36;40.23;97173.44;5025965;28;20308;-51
2022/03/29 04:20:29;;;;;;;19.57;10.73;;;10.70;46.20;;;11.32;40.13;97172.13;5025232;28;20049;-49
2022/03/29 04:22:57;;;;;;;16.00;9.77;;;10.70;45.90;;;11.28;39.87;97175.31;5024533;28;20063;-49
2022/03/29 04:25:25;;;;;;;16.33;10.00;;;10.70;45.70;;;11.26;39.84;97172.81;5025095;28;20060;-47
2022/03/29 04:27:52;;;;;;;16.03;10.77;;;10.70;45.80;;;11.27;39.85;97166.50;5026389;28;20454;-47
2022/03/29 04:30:20;;;;;;;15.77;9.87;;;10.70;45.60;;;11.31;39.87;97169.63;5028962;28;20059;-48
2022/03/29 04:32:48;;;;;;;15.57;9.03;;;10.80;45.30;;;11.33;40.07;97160.44;5028417;28;20045;-47
2022/03/29 04:35:16;;;;;;;16.60;10.07;;;10.80;45.10;;;11.35;39.59;97163.75;5028708;28;20048;-48
2022/03/29 04:37:44;;;;;;;13.70;9.27;;;10.80;44.90;;;11.37;39.73;97155.59;5029549;28;20252;-50
2022/03/29 04:40:13;;;;;;;12.63;8.63;;;10.90;45.00;;;11.34;40.12;97153.28;5025596;28;20041;-47
2022/03/29 04:42:45;;;;;;;13.70;9.30;;;10.80;45.00;;;11.32;40.08;97149.97;5028967;28;20076;-48
2022/03/29 04:45:15;;;;;;;10.87;8.43;;;10.80;45.20;;;11.32;40.16;97152.63;5029588;28;20055;-47
2022/03/29 04:47:44;;;;;;;15.40;10.40;;;10.80;45.30;;;11.32;40.03;97149.97;5028912;28;20065;-47
2022/03/29 04:50:14;;;;;;;15.00;10.27;;;10.80;45.40;;;11.32;40.32;97149.97;5027632;28;20052;-49
2022/03/29 04:52:44;;;;;;;11.83;10.03;;;10.80;45.40;;;11.31;40.34;97153.66;5028454;28;20079;-47
2022/03/29 04:55:15;;;;;;;18.17;10.37;;;10.80;45.60;;;11.30;40.15;97149.31;5027952;28;20049;-50
2022/03/29 04:57:45;;;;;;;16.03;9.07;;;10.80;45.60;;;11.28;40.43;97146.00;5029418;28;20532;-48
2022/03/29 05:00:16;;;;;;;22.30;9.97;;;10.80;45.70;;;11.26;40.19;97151.50;5028483;28;20054;-49
2022/03/29 05:02:44;;;;;;;15.97;11.00;;;10.70;45.70;;;11.27;40.27;97150.50;5027604;28;20347;-50
2022/03/29 05:05:13;;;;;;;12.83;8.50;;;10.80;45.60;;;11.28;40.36;97144.16;5027151;28;20269;-53
2022/03/29 05:07:42;;;;;;;15.27;9.87;;;10.80;45.60;;;11.29;40.18;97145.81;5007620;28;20463;-51
2022/03/29 05:10:11;;;;;;;16.13;9.33;;;10.80;45.40;;;11.32;40.04;97142.81;5008526;28;20068;-47
2022/03/29 05:12:44;;;;;;;14.23;10.07;;;10.90;45.40;;;11.31;40.28;97146.47;5008843;28;20063;-48
2022/03/29 05:15:16;;;;;;;15.98;8.20;;;10.80;45.40;;;11.31;40.49;97135.81;5008596;28;20053;-51
2022/03/29 05:17:44;;;;;;;13.53;8.77;;;10.80;45.50;;;11.36;40.37;97132.59;5007103;28;20049;-47
2022/03/29 05:20:14;;;;;;;16.47;9.63;;;10.90;45.30;;;11.37;39.99;97145.75;5007961;28;20045;-46
2022/03/29 05:22:50;;;;;;;14.57;9.07;;;10.90;45.40;;;11.41;40.02;97128.41;5007539;28;20352;-49
2022/03/29 05:25:21;;;;;;;14.20;9.47;;;11.00;45.60;;;11.43;40.24;97125.56;5009004;28;20041;-47
2022/03/29 05:27:51;;;;;;;19.17;12.77;;;11.00;45.20;;;11.44;40.29;97127.22;5009117;28;20216;-49
2022/03/29 05:30:21;;;;;;;13.43;8.63;;;11.10;45.20;;;11.45;40.13;97128.06;5008282;28;20230;-48
2022/03/29 05:32:57;;;;;;;15.97;9.87;;;11.10;45.10;;;11.47;39.81;97126.03;5009202;28;20240;-52
2022/03/29 05:35:29;;;;;;;15.17;8.50;;;11.10;45.10;;;11.44;40.32;97124.56;5007129;28;20366;-49
2022/03/29 05:38:00;;;;;;;12.63;9.17;;;11.00;45.20;;;11.44;39.95;97121.91;5008177;28;20054;-48
2022/03/29 05:40:29;;;;;;;11.60;8.60;;;11.10;45.30;;;11.40;40.45;97129.44;5007098;28;20054;-49
2022/03/29 05:42:57;;;;;;;13.13;8.97;;;11.00;45.30;;;11.40;40.29;97125.94;5008235;28;20661;-48
2022/03/29 05:45:25;;;;;;;14.00;11.30;;;11.00;46.00;;;11.37;40.45;97126.28;5008438;28;20237;-49
2022/03/29 05:50:39;;;;;;;13.87;10.00;;;11.00;45.10;;;11.27;40.44;97123.03;5007924;28;20058;-50
2022/03/29 05:53:07;;;;;;;13.53;9.00;;;10.80;45.70;;;11.32;40.43;97123.31;5008299;28;20061;-52
2022/03/29 05:55:35;;;;;;;13.27;8.90;;;10.90;45.60;;;11.34;40.50;97119.50;5005527;28;20091;-51
2022/03/29 05:58:03;;;;;;;19.10;10.20;;;10.90;45.70;;;11.37;40.46;97128.94;5007685;28;20291;-47
2022/03/29 06:00:31;;;;;;;18.37;9.90;;;11.00;45.90;;;11.40;40.46;97136.59;5007109;28;20057;-49
2022/03/29 06:02:59;;;;;;;15.60;10.30;;;11.00;45.70;;;11.46;40.79;97129.69;5007623;28;20049;-49
2022/03/29 06:05:29;;;;;;;12.80;8.77;;;11.10;45.70;;;11.50;40.98;97134.50;5007365;28;20060;-50
2022/03/29 06:07:59;;;;;;;14.43;9.03;;;11.20;45.80;;;11.53;41.13;97134.13;5008365;28;20267;-50
2022/03/29 06:10:27;;;;;;;19.20;11.23;;;11.20;45.70;;;11.56;40.50;97138.28;5007881;28;20057;-51
2022/03/29 06:12:55;;;;;;;18.73;10.30;;;11.30;45.70;;;11.58;40.51;97139.75;5007630;28;20382;-49
2022/03/29 06:15:23;;;;;;;15.27;9.33;;;11.30;45.80;;;11.61;40.63;97142.09;5006918;28;20062;-48
2022/03/29 06:17:50;;;;;;;14.70;8.57;;;11.30;45.80;;;11.66;40.96;97143.38;5007100;28;20049;-47
2022/03/29 06:20:18;;;;;;;14.33;9.60;;;11.40;45.60;;;11.70;40.67;97142.00;5007611;28;20526;-51
2022/03/29 06:22:46;;;;;;;14.07;8.87;;;11.40;45.30;;;11.73;40.25;97145.16;5006787;28;20042;-49
2022/03/29 06:25:14;;;;;;;16.80;9.32;;;11.40;45.10;;;11.74;40.89;97136.13;5007389;28;20049;-47
2022/03/29 06:27:42;;;;;;;12.50;8.33;;;11.50;45.30;;;11.75;40.61;97143.13;5006404;28;20233;-50
2022/03/29 06:30:11;;;;;;;12.43;8.13;;;11.40;45.10;;;11.78;40.75;97152.59;5006427;28;20062;-49
2022/03/29 06:32:51;;;;;;;12.97;8.23;;;11.40;45.30;;;11.74;41.20;97152.13;5007069;28;20052;-51
2022/03/29 06:35:28;;;;;;;14.27;8.83;;;11.50;45.60;;;11.79;40.84;97155.09;5006084;28;20058;-48
2022/03/29 06:37:58;;;;;;;13.10;8.63;;;11.50;45.40;;;11.83;40.47;97151.03;5007400;28;20049;-48
2022/03/29 06:40:28;;;;;;;13.20;8.03;;;11.60;45.00;;;11.90;40.35;97158.34;5007337;28;20280;-48
2022/03/29 06:43:00;;;;;;;12.33;8.13;;;11.70;45.00;;;11.92;40.42;97159.84;5008255;28;20255;-52
2022/03/29 06:45:29;;;;;;;17.57;9.30;;;11.70;44.40;;;11.98;39.90;97158.25;5004851;28;20236;-51
2022/03/29 06:47:58;;;;;;;17.10;10.27;;;11.80;44.20;;;12.01;40.23;97160.56;5007214;28;20263;-49
2022/03/29 06:50:26;;;;;;;17.53;10.53;;;11.80;44.00;;;11.99;39.75;97158.09;5006521;28;20045;-48
2022/03/29 06:52:55;;;;;;;16.97;12.27;;;11.70;44.20;;;12.03;39.89;97153.22;5017170;28;20048;-47
2022/03/29 06:55:28;;;;;;;14.43;9.93;;;11.80;44.30;;;12.01;39.74;97152.56;5031475;28;20354;-47
2022/03/29 06:57:55;;;;;;;14.23;8.35;;;11.80;44.00;;;12.08;39.93;97152.66;5026614;28;20045;-48
2022/03/29 07:00:25;;;;;;;14.13;9.23;;;11.90;44.20;;;12.13;40.06;97148.44;5026589;28;20263;-50
2022/03/29 07:02:53;;;;;;;15.75;8.65;;;12.00;43.90;;;12.17;40.04;97149.75;5017093;28;20040;-47
2022/03/29 07:05:21;;;;;;;15.67;9.40;;;12.00;43.80;;;12.21;39.68;97158.19;5012506;28;20053;-49
2022/03/29 07:07:50;;;;;;;14.38;8.73;;;12.00;43.60;;;12.20;39.93;97154.69;5027126;28;20053;-49
2022/03/29 07:13:06;;;;;;;15.57;8.40;;;12.00;43.50;;;12.27;39.30;97151.28;5045521;28;20255;-49
2022/03/29 07:15:34;;;;;;;15.35;10.10;;;12.10;43.50;;;12.29;39.74;97149.25;5045543;28;20055;-49
2022/03/29 07:18:02;;;;;;;15.45;9.52;;;12.10;43.50;;;12.32;39.25;97151.59;5039882;28;20071;-47
2022/03/29 07:20:30;;;;;;;17.60;11.85;;;12.20;43.30;;;12.33;39.42;97143.41;5026208;28;20063;-51
2022/03/29 07:22:58;;;;;;;15.02;8.45;;;12.20;43.20;;;12.39;39.23;97148.00;5026693;28;20506;-47
2022/03/29 07:25:31;;;;;;;16.48;10.43;;;12.30;43.00;;;12.45;39.36;97148.28;5025941;28;20045;-49
2022/03/29 07:28:01;;;;;;;13.85;9.35;;;12.30;42.80;;;12.48;39.11;97146.03;5039508;28;20061;-48
2022/03/29 07:30:33;;;;;;;17.23;9.60;;;12.40;42.70;;;12.50;39.10;97153.88;5043845;28;20275;-48
2022/03/29 07:33:01;;;;;;;15.00;8.35;;;12.40;42.80;;;12.55;38.96;97152.31;5026399;28;20049;-50
2022/03/29 07:35:29;;;;;;;12.52;9.40;;;12.40;42.70;;;12.60;39.00;97146.38;5025874;28;20072;-49
2022/03/29 07:37:58;;;;;;;16.48;7.72;;;12.50;42.50;;;12.64;39.05;97138.84;5026198;28;20057;-51
2022/03/29 07:40:29;;;;;;;19.60;8.25;;;12.60;42.40;;;12.70;38.86;97148.81;5029743;28;20049;-47
2022/03/29 07:42:58;;;;;;;12.45;7.90;;;12.60;42.00;;;12.72;39.14;97147.59;5044798;28;20041;-50
2022/03/29 07:45:27;;;;;;;12.75;8.52;;;12.60;42.40;;;12.77;39.09;97147.84;5045191;28;20068;-48
2022/03/29 07:47:56;;;;;;;13.52;7.72;;;12.70;42.10;;;12.77;38.76;97141.69;5046804;28;20045;-48
2022/03/29 07:50:44;;;;;;;14.60;7.30;;;12.70;41.80;;;12.80;38.57;97150.16;5044192;28;20048;-48
2022/03/29 07:53:12;;;;;;;11.77;8.85;;;12.70;41.90;;;12.85;38.45;97141.56;5044558;28;20055;-48
2022/03/29 07:55:40;;;;;;;17.25;8.98;;;12.80;41.50;;;12.90;38.23;97139.16;5045083;28;20354;-48
2022/03/29 07:58:16;;;;;;;13.35;8.57;;;12.80;41.30;;;12.96;38.04;97140.25;5038321;28;20041;-49
2022/03/29 08:00:46;;;;;;;14.70;9.45;;;12.90;41.00;;;13.02;38.13;97139.50;5030946;28;20507;-48
2022/03/29 08:03:19;;;;;;;16.40;9.32;;;13.00;40.90;;;13.05;37.99;97133.78;5036555;28;20344;-50
2022/03/29 08:05:49;;;;;;;18.25;9.40;;;13.10;41.00;;;13.12;38.06;97134.66;5038225;28;20041;-48
2022/03/29 08:08:17;;;;;;;16.75;9.57;;;13.10;40.80;;;13.15;38.02;97130.81;5037937;28;20057;-50
2022/03/29 08:10:47;;;;;;;15.48;9.43;;;13.20;40.90;;;13.23;38.18;97138.69;5036938;28;20243;-50
2022/03/29 08:13:16;;;;;;;14.60;10.35;;;13.30;41.00;;;13.28;37.90;97130.09;5038904;28;20240;-49
2022/03/29 08:15:47;;;;;;;15.05;9.45;;;13.30;41.00;;;13.30;38.20;97133.44;5036163;28;20059;-50
2022/03/29 08:18:16;;;;;;;26.77;10.02;;;13.30;41.10;;;13.36;38.21;97138.84;5048366;28;20118;-51
2022/03/29 08:20:44;;;;;;;14.63;9.63;;;13.40;41.00;;;13.41;38.09;97143.63;5049132;28;20055;-51
2022/03/29 08:23:12;;;;;;;18.27;11.07;;;13.50;41.10;;;13.34;37.96;97143.56;5049813;28;20049;-48
2022/03/29 08:25:42;;;;;;;17.27;9.45;;;13.40;40.60;;;13.37;37.93;97140.50;5050110;28;20057;-50
2022/03/29 08:28:12;;;;;;;15.82;10.40;;;13.40;40.90;;;13.18;37.84;97147.28;5048063;28;20049;-50
2022/03/29 08:30:42;;;;;;;14.75;9.23;;;13.30;40.60;;;13.25;38.45;97144.66;5049314;28;20243;-49
2022/03/29 08:33:10;;;;;;;21.38;11.93;;;13.20;41.70;;;13.38;38.12;97141.34;5048891;28;20053;-51
2022/03/29 08:35:38;;;;;;;15.57;9.77;;;13.40;41.50;;;13.49;38.38;97146.19;5048132;28;20246;-49
2022/03/29 08:38:06;;;;;;;39.25;12.85;;;13.60;41.20;;;13.58;38.04;97144.19;5050183;28;20045;-51
2022/03/29 08:40:58;;;;;;;17.95;11.38;;;13.70;40.80;;;13.57;37.76;97137.16;5048420;28;20059;-48
2022/03/29 08:43:30;;;;;;;17.45;10.40;;;13.70;40.40;;;13.53;37.56;97144.78;5048748;28;20052;-48
2022/03/29 08:45:59;;;;;;;16.48;11.43;;;13.70;39.80;;;13.65;37.55;97139.75;5049004;28;20040;-52
2022/03/29 08:48:29;;;;;;;16.67;11.35;;;13.80;39.60;;;13.58;37.50;97149.53;5048452;28;20045;-51
2022/03/29 08:51:00;;;;;;;16.25;10.43;;;13.80;39.60;;;13.76;38.07;97139.22;5047789;28;20351;-49
2022/03/29 08:53:49;;;;;;;16.00;10.75;;;13.90;40.70;;;13.80;38.14;97147.66;5048558;28;20049;-49
2022/03/29 08:56:18;;;;;;;25.45;13.43;;;14.00;41.30;;;13.79;38.78;97151.38;5049126;28;20056;-48
2022/03/29 08:58:46;;;;;;;21.85;12.65;;;14.00;41.80;;;13.87;38.34;97145.88;5049147;28;20071;-47
2022/03/29 09:01:19;;;;;;;19.23;11.75;;;14.00;41.10;;;13.78;38.42;97145.19;5048619;28;20059;-47
2022/03/29 09:04:09;;;;;;;14.47;11.10;;;13.90;41.70;;;13.82;38.85;97147.47;5048979;28;20053;-51
2022/03/29 09:07:00;;;;;;;16.85;11.35;;;13.90;42.00;;;13.88;38.28;97146.69;5047777;28;20221;-48
2022/03/29 09:09:35;;;;;;;17.80;11.27;;;14.10;41.40;;;13.91;38.18;97138.28;5048367;28;20251;-49
2022/03/29 09:12:14;;;;;;;16.52;12.13;;;14.10;40.80;;;13.97;38.28;97138.31;5048951;28;20053;-51
2022/03/29 09:14:57;;;;;;;17.83;11.38;;;14.10;41.30;;;14.08;38.55;97138.81;5046595;28;20041;-47
2022/03/29 09:17:38;;;;;;;19.67;11.98;;;14.20;41.80;;;14.04;38.77;97135.72;5047941;28;20059;-47
2022/03/29 09:20:10;;;;;;;19.42;11.20;;;14.20;41.90;;;14.12;38.94;97140.91;5047725;28;20059;-48
2022/03/29 09:22:46;;;;;;;22.25;12.57;;;14.20;42.20;;;14.11;39.24;97131.22;5048809;28;20053;-51
2022/03/29 09:25:22;;;;;;;18.17;11.82;;;14.20;42.80;;;14.17;39.43;97135.78;5048244;28;20051;-52
2022/03/29 09:27:57;;;;;;;19.83;12.32;;;14.20;43.10;;;14.16;39.20;97119.94;5048289;28;20274;-48
2022/03/29 09:30:41;;;;;;;20.00;13.35;;;14.30;43.00;;;14.20;38.91;97117.69;5047254;28;20281;-50
2022/03/29 09:33:19;;;;;;;22.80;12.25;;;14.20;42.30;;;14.16;38.76;97120.75;5046568;28;20247;-48
2022/03/29 09:36:04;;;;;;;19.00;11.10;;;14.20;41.90;;;14.11;38.14;97111.66;5048098;28;20055;-53
2022/03/29 09:38:36;;;;;;;21.27;13.27;;;14.20;40.90;;;14.19;38.36;97106.16;5048019;28;20039;-50
2022/03/29 09:41:18;;;;;;;15.48;11.27;;;14.30;41.60;;;14.13;39.42;97123.84;5047440;28;20079;-49
2022/03/29 09:44:02;;;;;;;;;;;14.30;42.90;;;14.24;39.28;97113.59;5052542;28;20056;-47
2022/03/29 09:46:31;;;;;;;18.77;12.00;;;14.30;43.40;;;14.26;39.56;97111.53;5044086;28;19917;-47
2022/03/29 09:49:01;;;;;;;22.73;12.10;;;14.30;43.50;;;14.26;39.70;97112.34;5047532;28;20071;-50
2022/03/29 09:51:29;;;;;;;19.00;13.27;;;14.30;43.80;;;14.32;39.73;97103.53;5046192;28;20247;-50
2022/03/29 09:54:01;;;;;;;20.58;12.77;;;14.30;44.20;;;14.40;39.42;97107.06;5047224;28;20057;-49
2022/03/29 09:56:30;;;;;;;20.92;13.88;;;14.50;42.80;;;14.51;39.17;97093.94;5046218;28;20052;-48
2022/03/29 09:59:18;;;;;;;19.85;12.70;;;14.60;42.70;;;14.61;38.92;97103.50;5046135;28;20049;-50
2022/03/29 10:01:57;;;;;;;18.27;12.50;;;14.70;42.00;;;14.62;38.74;97087.22;5046721;28;20240;-48
2022/03/29 10:04:33;;;;;;;21.83;12.23;;;14.70;41.90;;;14.55;38.51;97091.69;5048252;28;20057;-50
2022/03/29 10:07:07;;;;;;;19.27;13.05;;;14.70;41.80;;;14.68;38.48;97088.28;5047061;28;20365;-48
2022/03/29 10:09:38;;;;;;;21.10;12.23;;;14.80;41.60;;;14.68;38.66;97077.56;5046866;28;20060;-50
2022/03/29 10:12:09;;;;;;;20.38;12.00;;;14.80;41.60;;;14.84;38.49;97079.88;5047273;28;20057;-51
2022/03/29 10:14:42;;;;;;;19.73;13.43;;;15.00;41.40;;;14.92;38.43;97066.28;5045731;28;20082;-50
2022/03/29 10:17:13;;;;;;;26.02;18.10;;;15.10;41.10;;;15.02;38.14;97063.19;5046585;28;20055;-50
2022/03/29 10:19:44;;;;;;;24.00;13.77;;;15.20;40.80;;;15.14;38.10;97055.38;5047693;28;20270;-50
2022/03/29 10:22:13;;;;;;;19.67;13.10;;;15.40;40.80;;;15.22;37.51;97057.88;5047138;28;20045;-50
2022/03/29 10:24:41;;;;;;;19.95;11.82;;;15.50;40.00;;;15.14;36.75;97053.56;5045987;28;20051;-48
2022/03/29 10:27:10;;;;;;;21.45;12.15;;;15.40;38.80;;;15.11;36.39;97056.63;5047559;28;20074;-49
2022/03/29 10:29:42;;;;;;;22.92;11.90;;;15.30;38.80;;;15.17;36.78;97052.31;5046919;28;20246;-49